Choctaw Beach, Florida
Current Conditions -  °F | °C
As of 3:55 PM on Monday 26 Jan 2015 (Local Time) from KVPS Reporting Station
Few Clouds Few Clouds  
Wind Chill: 57°   Ceiling: Unl
Heat Index: 57°   Visibility: 10mi
Dew Point: 34°   Wind: 17mph
Humidity: 42%   Direction: 350°N
Pressure: 29.97"   Gusts: 24mph
Location:  30.5136°N, 86.4378°W
Report Text: KVPS 262155Z 35015G21KT 10SM FEW050 14/01 A2997 RMK AO2A SLP155 T01390013 $
Loading
Personal Weather Stations






























Interactive Weather Map New forecast layout! Learn more

10-Day Weather Forecast

Advertisements
Track Severe Weather on mobile